sensor_id;sensor_type;location;lat;lon;timestamp;temperature;humidity
2226;DHT22;1119;48.288;8.726;2023-02-05T00:02:20;2.50;99.90
2226;DHT22;1119;48.288;8.726;2023-02-05T00:04:48;2.50;99.90
2226;DHT22;1119;48.288;8.726;2023-02-05T00:07:15;2.50;99.90
2226;DHT22;1119;48.288;8.726;2023-02-05T00:09:42;2.50;99.90
2226;DHT22;1119;48.288;8.726;2023-02-05T00:12:10;2.60;99.90
2226;DHT22;1119;48.288;8.726;2023-02-05T00:14:37;2.50;99.90
2226;DHT22;1119;48.288;8.726;2023-02-05T00:17:04;2.50;99.90
2226;DHT22;1119;48.288;8.726;2023-02-05T00:19:33;2.50;99.90
2226;DHT22;1119;48.288;8.726;2023-02-05T00:22:00;2.50;99.90
2226;DHT22;1119;48.288;8.726;2023-02-05T00:24:28;2.70;99.90
2226;DHT22;1119;48.288;8.726;2023-02-05T00:26:55;2.60;99.90
2226;DHT22;1119;48.288;8.726;2023-02-05T00:29:22;2.60;99.90
2226;DHT22;1119;48.288;8.726;2023-02-05T00:31:50;2.60;99.90
2226;DHT22;1119;48.288;8.726;2023-02-05T00:34:18;2.60;99.90
2226;DHT22;1119;48.288;8.726;2023-02-05T00:36:47;2.60;99.90
2226;DHT22;1119;48.288;8.726;2023-02-05T00:39:15;2.60;99.90
2226;DHT22;1119;48.288;8.726;2023-02-05T00:41:46;2.60;99.90
2226;DHT22;1119;48.288;8.726;2023-02-05T00:44:13;2.60;99.90
2226;DHT22;1119;48.288;8.726;2023-02-05T00:46:42;2.60;99.90
2226;DHT22;1119;48.288;8.726;2023-02-05T00:49:10;2.80;99.90
2226;DHT22;1119;48.288;8.726;2023-02-05T00:51:37;2.50;99.90
2226;DHT22;1119;48.288;8.726;2023-02-05T00:54:06;2.50;99.90
2226;DHT22;1119;48.288;8.726;2023-02-05T00:56:34;2.50;99.90
2226;DHT22;1119;48.288;8.726;2023-02-05T00:59:02;2.50;99.90
2226;DHT22;1119;48.288;8.726;2023-02-05T01:01:30;2.50;99.90
2226;DHT22;1119;48.288;8.726;2023-02-05T01:03:57;2.60;99.90
2226;DHT22;1119;48.288;8.726;2023-02-05T01:06:24;2.50;99.90
2226;DHT22;1119;48.288;8.726;2023-02-05T01:08:52;2.50;99.90
2226;DHT22;1119;48.288;8.726;2023-02-05T01:11:21;2.60;99.90
2226;DHT22;1119;48.288;8.726;2023-02-05T01:13:48;2.60;99.90
2226;DHT22;1119;48.288;8.726;2023-02-05T01:16:15;2.60;99.90
2226;DHT22;1119;48.288;8.726;2023-02-05T01:18:43;2.60;99.90
2226;DHT22;1119;48.288;8.726;2023-02-05T01:21:10;2.50;99.90
2226;DHT22;1119;48.288;8.726;2023-02-05T01:23:38;2.50;99.90
2226;DHT22;1119;48.288;8.726;2023-02-05T01:26:05;2.40;99.90
2226;DHT22;1119;48.288;8.726;2023-02-05T01:28:34;2.40;99.90
2226;DHT22;1119;48.288;8.726;2023-02-05T01:31:01;2.40;99.90
2226;DHT22;1119;48.288;8.726;2023-02-05T01:33:28;2.40;99.90
2226;DHT22;1119;48.288;8.726;2023-02-05T01:35:56;2.20;99.90
2226;DHT22;1119;48.288;8.726;2023-02-05T01:38:23;2.20;99.90
2226;DHT22;1119;48.288;8.726;2023-02-05T01:40:50;2.10;99.90
2226;DHT22;1119;48.288;8.726;2023-02-05T01:43:18;2.10;99.90
2226;DHT22;1119;48.288;8.726;2023-02-05T01:46:10;2.10;99.90
2226;DHT22;1119;48.288;8.726;2023-02-05T01:48:46;2.00;99.90
2226;DHT22;1119;48.288;8.726;2023-02-05T01:51:16;2.00;99.90
2226;DHT22;1119;48.288;8.726;2023-02-05T01:53:45;2.00;99.90
2226;DHT22;1119;48.288;8.726;2023-02-05T01:56:16;2.00;99.90
2226;DHT22;1119;48.288;8.726;2023-02-05T01:58:49;2.00;99.90
2226;DHT22;1119;48.288;8.726;2023-02-05T02:01:20;2.00;99.90
2226;DHT22;1119;48.288;8.726;2023-02-05T02:03:48;2.00;99.90
2226;DHT22;1119;48.288;8.726;2023-02-05T02:06:16;2.00;99.90
2226;DHT22;1119;48.288;8.726;2023-02-05T02:08:43;2.00;99.90
2226;DHT22;1119;48.288;8.726;2023-02-05T02:11:13;2.00;99.90
2226;DHT22;1119;48.288;8.726;2023-02-05T02:13:42;2.00;99.90
2226;DHT22;1119;48.288;8.726;2023-02-05T02:16:11;2.00;99.90
2226;DHT22;1119;48.288;8.726;2023-02-05T02:18:40;2.00;99.90
2226;DHT22;1119;48.288;8.726;2023-02-05T02:21:56;2.00;99.90
2226;DHT22;1119;48.288;8.726;2023-02-05T02:27:49;2.00;99.90
2226;DHT22;1119;48.288;8.726;2023-02-05T02:30:23;2.10;99.90
2226;DHT22;1119;48.288;8.726;2023-02-05T02:33:00;2.00;99.90
2226;DHT22;1119;48.288;8.726;2023-02-05T02:35:39;2.10;99.90
2226;DHT22;1119;48.288;8.726;2023-02-05T02:38:15;2.00;99.90
2226;DHT22;1119;48.288;8.726;2023-02-05T02:40:55;2.00;99.90
2226;DHT22;1119;48.288;8.726;2023-02-05T02:43:33;2.00;99.90
2226;DHT22;1119;48.288;8.726;2023-02-05T02:46:05;2.00;99.90
2226;DHT22;1119;48.288;8.726;2023-02-05T02:48:38;2.00;99.90
2226;DHT22;1119;48.288;8.726;2023-02-05T02:51:09;2.00;99.90
2226;DHT22;1119;48.288;8.726;2023-02-05T02:53:39;2.00;99.90
2226;DHT22;1119;48.288;8.726;2023-02-05T02:56:11;2.00;99.90
2226;DHT22;1119;48.288;8.726;2023-02-05T02:58:44;2.00;99.90
2226;DHT22;1119;48.288;8.726;2023-02-05T03:01:17;2.00;99.90
2226;DHT22;1119;48.288;8.726;2023-02-05T03:07:04;2.00;99.90
2226;DHT22;1119;48.288;8.726;2023-02-05T03:09:39;2.00;99.90
2226;DHT22;1119;48.288;8.726;2023-02-05T03:12:09;2.00;99.90
2226;DHT22;1119;48.288;8.726;2023-02-05T03:14:39;2.10;99.90
2226;DHT22;1119;48.288;8.726;2023-02-05T03:17:06;2.10;99.90
2226;DHT22;1119;48.288;8.726;2023-02-05T03:19:34;2.20;99.90
2226;DHT22;1119;48.288;8.726;2023-02-05T03:22:03;2.20;99.90
2226;DHT22;1119;48.288;8.726;2023-02-05T03:24:31;2.30;99.90
2226;DHT22;1119;48.288;8.726;2023-02-05T03:26:59;2.20;99.90
2226;DHT22;1119;48.288;8.726;2023-02-05T03:29:30;2.40;99.90
2226;DHT22;1119;48.288;8.726;2023-02-05T03:32:17;2.30;99.90
2226;DHT22;1119;48.288;8.726;2023-02-05T03:35:00;2.30;99.90
2226;DHT22;1119;48.288;8.726;2023-02-05T03:37:42;2.30;99.90
2226;DHT22;1119;48.288;8.726;2023-02-05T03:40:17;2.40;99.90
2226;DHT22;1119;48.288;8.726;2023-02-05T03:42:53;2.40;99.90
2226;DHT22;1119;48.288;8.726;2023-02-05T03:45:42;2.40;99.90
2226;DHT22;1119;48.288;8.726;2023-02-05T03:48:35;2.30;99.90
2226;DHT22;1119;48.288;8.726;2023-02-05T03:51:18;2.20;99.90
2226;DHT22;1119;48.288;8.726;2023-02-05T03:54:00;2.30;99.90
2226;DHT22;1119;48.288;8.726;2023-02-05T03:56:38;2.20;99.90
2226;DHT22;1119;48.288;8.726;2023-02-05T03:59:10;2.20;99.90
2226;DHT22;1119;48.288;8.726;2023-02-05T04:01:41;2.20;99.90
2226;DHT22;1119;48.288;8.726;2023-02-05T04:04:11;2.10;99.90
2226;DHT22;1119;48.288;8.726;2023-02-05T04:06:39;2.10;99.90
2226;DHT22;1119;48.288;8.726;2023-02-05T04:09:06;2.10;99.90
2226;DHT22;1119;48.288;8.726;2023-02-05T04:11:35;2.00;99.90
2226;DHT22;1119;48.288;8.726;2023-02-05T04:14:04;2.10;99.90
2226;DHT22;1119;48.288;8.726;2023-02-05T04:16:32;2.10;99.90
2226;DHT22;1119;48.288;8.726;2023-02-05T04:19:00;2.10;99.90
2226;DHT22;1119;48.288;8.726;2023-02-05T04:21:28;2.00;99.90
2226;DHT22;1119;48.288;8.726;2023-02-05T04:23:55;2.00;99.90
2226;DHT22;1119;48.288;8.726;2023-02-05T04:26:23;2.00;99.90
2226;DHT22;1119;48.288;8.726;2023-02-05T04:28:59;2.00;99.90
2226;DHT22;1119;48.288;8.726;2023-02-05T04:31:29;2.00;99.90
2226;DHT22;1119;48.288;8.726;2023-02-05T04:33:57;2.00;99.90
2226;DHT22;1119;48.288;8.726;2023-02-05T04:36:24;2.00;99.90
2226;DHT22;1119;48.288;8.726;2023-02-05T04:38:53;2.00;99.90
2226;DHT22;1119;48.288;8.726;2023-02-05T04:41:21;2.10;99.90
2226;DHT22;1119;48.288;8.726;2023-02-05T04:43:48;2.10;99.90
2226;DHT22;1119;48.288;8.726;2023-02-05T04:46:15;2.00;99.90
2226;DHT22;1119;48.288;8.726;2023-02-05T04:48:43;2.10;99.90
2226;DHT22;1119;48.288;8.726;2023-02-05T04:51:12;2.10;99.90
2226;DHT22;1119;48.288;8.726;2023-02-05T04:53:39;2.10;99.90
2226;DHT22;1119;48.288;8.726;2023-02-05T04:56:10;2.00;99.90
2226;DHT22;1119;48.288;8.726;2023-02-05T04:58:39;1.90;99.90
2226;DHT22;1119;48.288;8.726;2023-02-05T05:01:10;1.90;99.90
2226;DHT22;1119;48.288;8.726;2023-02-05T05:03:38;1.90;99.90
2226;DHT22;1119;48.288;8.726;2023-02-05T05:06:06;1.90;99.90
2226;DHT22;1119;48.288;8.726;2023-02-05T05:08:34;1.90;99.90
2226;DHT22;1119;48.288;8.726;2023-02-05T05:11:05;1.80;99.90
2226;DHT22;1119;48.288;8.726;2023-02-05T05:13:35;1.80;99.90
2226;DHT22;1119;48.288;8.726;2023-02-05T05:16:04;1.80;99.90
2226;DHT22;1119;48.288;8.726;2023-02-05T05:18:32;1.70;99.90
2226;DHT22;1119;48.288;8.726;2023-02-05T05:20:59;1.70;99.90
2226;DHT22;1119;48.288;8.726;2023-02-05T05:23:27;1.70;99.90
2226;DHT22;1119;48.288;8.726;2023-02-05T05:25:54;1.60;99.90
2226;DHT22;1119;48.288;8.726;2023-02-05T05:28:22;1.60;99.90
2226;DHT22;1119;48.288;8.726;2023-02-05T05:30:50;1.60;99.90
2226;DHT22;1119;48.288;8.726;2023-02-05T05:33:17;1.60;99.90
2226;DHT22;1119;48.288;8.726;2023-02-05T05:35:45;1.60;99.90
2226;DHT22;1119;48.288;8.726;2023-02-05T05:38:12;1.60;99.90
2226;DHT22;1119;48.288;8.726;2023-02-05T05:40:39;1.60;99.90
2226;DHT22;1119;48.288;8.726;2023-02-05T05:43:24;1.60;99.90
2226;DHT22;1119;48.288;8.726;2023-02-05T05:46:11;1.60;99.90
2226;DHT22;1119;48.288;8.726;2023-02-05T05:48:39;1.60;99.90
2226;DHT22;1119;48.288;8.726;2023-02-05T05:51:07;1.60;99.90
2226;DHT22;1119;48.288;8.726;2023-02-05T05:53:34;1.70;99.90
2226;DHT22;1119;48.288;8.726;2023-02-05T05:56:01;1.70;99.90
2226;DHT22;1119;48.288;8.726;2023-02-05T05:58:29;1.70;99.90
2226;DHT22;1119;48.288;8.726;2023-02-05T06:00:56;1.80;99.90
2226;DHT22;1119;48.288;8.726;2023-02-05T06:03:25;1.80;99.90
2226;DHT22;1119;48.288;8.726;2023-02-05T06:05:52;1.80;99.90
2226;DHT22;1119;48.288;8.726;2023-02-05T06:08:19;1.90;99.90
2226;DHT22;1119;48.288;8.726;2023-02-05T06:10:47;1.90;99.90
2226;DHT22;1119;48.288;8.726;2023-02-05T06:13:14;1.90;99.90
2226;DHT22;1119;48.288;8.726;2023-02-05T06:15:41;1.90;99.90
2226;DHT22;1119;48.288;8.726;2023-02-05T06:18:08;1.90;99.90
2226;DHT22;1119;48.288;8.726;2023-02-05T06:20:37;1.90;99.90
2226;DHT22;1119;48.288;8.726;2023-02-05T06:23:04;1.90;99.90
2226;DHT22;1119;48.288;8.726;2023-02-05T06:25:31;1.90;99.90
2226;DHT22;1119;48.288;8.726;2023-02-05T06:27:59;2.00;99.90
2226;DHT22;1119;48.288;8.726;2023-02-05T06:30:26;2.00;99.90
2226;DHT22;1119;48.288;8.726;2023-02-05T06:32:53;2.00;99.90
2226;DHT22;1119;48.288;8.726;2023-02-05T06:35:21;2.00;99.90
2226;DHT22;1119;48.288;8.726;2023-02-05T06:37:49;2.10;99.90
2226;DHT22;1119;48.288;8.726;2023-02-05T06:40:17;2.10;99.90
2226;DHT22;1119;48.288;8.726;2023-02-05T06:42:47;2.10;99.90
2226;DHT22;1119;48.288;8.726;2023-02-05T06:45:15;2.10;99.90
2226;DHT22;1119;48.288;8.726;2023-02-05T06:47:42;2.10;99.90
2226;DHT22;1119;48.288;8.726;2023-02-05T06:50:09;2.00;99.90
2226;DHT22;1119;48.288;8.726;2023-02-05T06:52:37;2.10;99.90
2226;DHT22;1119;48.288;8.726;2023-02-05T06:55:06;2.10;99.90
2226;DHT22;1119;48.288;8.726;2023-02-05T06:57:33;2.10;99.90
2226;DHT22;1119;48.288;8.726;2023-02-05T07:00:01;2.10;99.90
2226;DHT22;1119;48.288;8.726;2023-02-05T07:02:28;2.10;99.90
2226;DHT22;1119;48.288;8.726;2023-02-05T07:04:55;2.10;99.90
2226;DHT22;1119;48.288;8.726;2023-02-05T07:07:23;2.10;99.90
2226;DHT22;1119;48.288;8.726;2023-02-05T07:09:50;2.20;99.90
2226;DHT22;1119;48.288;8.726;2023-02-05T07:12:19;2.20;99.90
2226;DHT22;1119;48.288;8.726;2023-02-05T07:14:46;2.20;99.90
2226;DHT22;1119;48.288;8.726;2023-02-05T07:17:14;2.10;99.90
2226;DHT22;1119;48.288;8.726;2023-02-05T07:19:41;2.10;99.90
2226;DHT22;1119;48.288;8.726;2023-02-05T07:22:11;2.10;99.90
2226;DHT22;1119;48.288;8.726;2023-02-05T07:24:38;2.20;99.90
2226;DHT22;1119;48.288;8.726;2023-02-05T07:27:06;2.20;99.90
2226;DHT22;1119;48.288;8.726;2023-02-05T07:29:34;2.30;99.90
2226;DHT22;1119;48.288;8.726;2023-02-05T07:32:01;2.30;99.90
2226;DHT22;1119;48.288;8.726;2023-02-05T07:34:29;2.40;99.90
2226;DHT22;1119;48.288;8.726;2023-02-05T07:36:56;2.30;99.90
2226;DHT22;1119;48.288;8.726;2023-02-05T07:39:23;2.30;99.90
2226;DHT22;1119;48.288;8.726;2023-02-05T07:41:52;2.20;99.90
2226;DHT22;1119;48.288;8.726;2023-02-05T07:44:27;2.30;99.90
2226;DHT22;1119;48.288;8.726;2023-02-05T07:46:55;2.30;99.90
2226;DHT22;1119;48.288;8.726;2023-02-05T07:49:23;2.50;99.90
2226;DHT22;1119;48.288;8.726;2023-02-05T07:51:50;2.30;99.90
2226;DHT22;1119;48.288;8.726;2023-02-05T07:54:18;2.30;99.90
2226;DHT22;1119;48.288;8.726;2023-02-05T07:56:45;2.30;99.90
2226;DHT22;1119;48.288;8.726;2023-02-05T07:59:12;2.30;99.90
2226;DHT22;1119;48.288;8.726;2023-02-05T08:01:39;2.30;99.90
2226;DHT22;1119;48.288;8.726;2023-02-05T08:04:08;2.40;99.90
2226;DHT22;1119;48.288;8.726;2023-02-05T08:06:35;2.40;99.90
2226;DHT22;1119;48.288;8.726;2023-02-05T08:09:02;2.30;99.90
2226;DHT22;1119;48.288;8.726;2023-02-05T08:11:29;2.40;99.90
2226;DHT22;1119;48.288;8.726;2023-02-05T08:13:56;2.30;99.90
2226;DHT22;1119;48.288;8.726;2023-02-05T08:16:24;2.30;99.90
2226;DHT22;1119;48.288;8.726;2023-02-05T08:18:51;2.30;99.90
2226;DHT22;1119;48.288;8.726;2023-02-05T08:21:19;2.30;99.90
2226;DHT22;1119;48.288;8.726;2023-02-05T08:23:47;2.30;99.90
2226;DHT22;1119;48.288;8.726;2023-02-05T08:26:14;2.40;99.90
2226;DHT22;1119;48.288;8.726;2023-02-05T08:28:42;2.40;99.90
2226;DHT22;1119;48.288;8.726;2023-02-05T08:31:11;2.50;99.90
2226;DHT22;1119;48.288;8.726;2023-02-05T08:33:40;2.50;99.90
2226;DHT22;1119;48.288;8.726;2023-02-05T08:36:08;2.50;99.90
2226;DHT22;1119;48.288;8.726;2023-02-05T08:38:44;2.50;99.90
2226;DHT22;1119;48.288;8.726;2023-02-05T08:41:11;2.50;99.90
2226;DHT22;1119;48.288;8.726;2023-02-05T08:43:40;2.50;99.90
2226;DHT22;1119;48.288;8.726;2023-02-05T08:46:08;2.60;99.90
2226;DHT22;1119;48.288;8.726;2023-02-05T08:48:36;2.60;99.90
2226;DHT22;1119;48.288;8.726;2023-02-05T08:51:04;2.60;99.90
2226;DHT22;1119;48.288;8.726;2023-02-05T08:53:32;2.60;99.90
2226;DHT22;1119;48.288;8.726;2023-02-05T08:56:02;2.60;99.90
2226;DHT22;1119;48.288;8.726;2023-02-05T08:58:30;2.50;99.90
2226;DHT22;1119;48.288;8.726;2023-02-05T09:01:01;2.50;99.90
2226;DHT22;1119;48.288;8.726;2023-02-05T09:03:29;2.50;99.90
2226;DHT22;1119;48.288;8.726;2023-02-05T09:05:56;2.50;99.90
2226;DHT22;1119;48.288;8.726;2023-02-05T09:08:27;2.60;99.90
2226;DHT22;1119;48.288;8.726;2023-02-05T09:10:54;2.60;99.90
2226;DHT22;1119;48.288;8.726;2023-02-05T09:13:23;2.70;99.90
2226;DHT22;1119;48.288;8.726;2023-02-05T09:15:50;2.80;99.90
2226;DHT22;1119;48.288;8.726;2023-02-05T09:18:18;2.70;99.90
2226;DHT22;1119;48.288;8.726;2023-02-05T09:20:47;2.80;99.90
2226;DHT22;1119;48.288;8.726;2023-02-05T09:23:17;2.80;99.90
2226;DHT22;1119;48.288;8.726;2023-02-05T09:25:44;2.80;99.90
2226;DHT22;1119;48.288;8.726;2023-02-05T09:28:13;2.90;99.90
2226;DHT22;1119;48.288;8.726;2023-02-05T09:30:43;3.00;99.90
2226;DHT22;1119;48.288;8.726;2023-02-05T09:33:12;3.00;99.90
2226;DHT22;1119;48.288;8.726;2023-02-05T09:35:40;3.10;99.90
2226;DHT22;1119;48.288;8.726;2023-02-05T09:38:08;3.10;99.90
2226;DHT22;1119;48.288;8.726;2023-02-05T09:40:56;3.20;99.90
2226;DHT22;1119;48.288;8.726;2023-02-05T09:43:38;3.20;99.90
2226;DHT22;1119;48.288;8.726;2023-02-05T09:46:20;3.30;99.90
2226;DHT22;1119;48.288;8.726;2023-02-05T09:48:56;3.40;99.90
2226;DHT22;1119;48.288;8.726;2023-02-05T09:51:31;3.30;99.90
2226;DHT22;1119;48.288;8.726;2023-02-05T09:54:04;3.30;99.90
2226;DHT22;1119;48.288;8.726;2023-02-05T09:56:38;3.20;99.90
2226;DHT22;1119;48.288;8.726;2023-02-05T09:59:05;3.20;99.90
2226;DHT22;1119;48.288;8.726;2023-02-05T10:01:44;3.10;99.90
2226;DHT22;1119;48.288;8.726;2023-02-05T10:04:14;3.10;99.90
2226;DHT22;1119;48.288;8.726;2023-02-05T10:09:56;3.10;99.90
2226;DHT22;1119;48.288;8.726;2023-02-05T10:12:39;3.10;99.90
2226;DHT22;1119;48.288;8.726;2023-02-05T10:15:26;3.10;99.90
2226;DHT22;1119;48.288;8.726;2023-02-05T10:18:10;3.00;99.90
2226;DHT22;1119;48.288;8.726;2023-02-05T10:20:54;2.90;99.90
2226;DHT22;1119;48.288;8.726;2023-02-05T10:23:43;2.90;99.90
2226;DHT22;1119;48.288;8.726;2023-02-05T10:26:17;2.90;99.90
2226;DHT22;1119;48.288;8.726;2023-02-05T10:29:04;3.00;99.90
2226;DHT22;1119;48.288;8.726;2023-02-05T10:31:40;3.00;99.90
2226;DHT22;1119;48.288;8.726;2023-02-05T10:34:18;3.00;99.90
2226;DHT22;1119;48.288;8.726;2023-02-05T10:36:57;3.10;99.90
2226;DHT22;1119;48.288;8.726;2023-02-05T10:39:28;3.10;99.90
2226;DHT22;1119;48.288;8.726;2023-02-05T10:41:58;3.10;99.90
2226;DHT22;1119;48.288;8.726;2023-02-05T10:44:31;3.10;99.90
2226;DHT22;1119;48.288;8.726;2023-02-05T10:47:03;3.10;99.90
2226;DHT22;1119;48.288;8.726;2023-02-05T10:49:43;3.10;99.90
2226;DHT22;1119;48.288;8.726;2023-02-05T10:52:14;3.00;99.90
2226;DHT22;1119;48.288;8.726;2023-02-05T10:54:42;3.00;99.90
2226;DHT22;1119;48.288;8.726;2023-02-05T10:57:12;3.00;99.90
2226;DHT22;1119;48.288;8.726;2023-02-05T10:59:48;3.10;99.90
2226;DHT22;1119;48.288;8.726;2023-02-05T11:02:19;3.10;99.90
2226;DHT22;1119;48.288;8.726;2023-02-05T11:04:51;3.10;99.90
2226;DHT22;1119;48.288;8.726;2023-02-05T11:07:25;3.20;99.90
2226;DHT22;1119;48.288;8.726;2023-02-05T11:09:57;3.30;99.90
2226;DHT22;1119;48.288;8.726;2023-02-05T11:12:42;3.30;99.90
2226;DHT22;1119;48.288;8.726;2023-02-05T11:15:19;3.30;99.90
2226;DHT22;1119;48.288;8.726;2023-02-05T11:17:52;3.40;99.90
2226;DHT22;1119;48.288;8.726;2023-02-05T11:20:30;3.40;99.90
2226;DHT22;1119;48.288;8.726;2023-02-05T11:23:13;3.40;99.90
2226;DHT22;1119;48.288;8.726;2023-02-05T11:25:50;3.40;99.90
2226;DHT22;1119;48.288;8.726;2023-02-05T11:28:20;3.40;99.90
2226;DHT22;1119;48.288;8.726;2023-02-05T11:30:49;3.50;99.90
2226;DHT22;1119;48.288;8.726;2023-02-05T11:33:27;3.50;99.90
2226;DHT22;1119;48.288;8.726;2023-02-05T11:36:00;3.50;99.90
2226;DHT22;1119;48.288;8.726;2023-02-05T11:38:32;3.60;99.90
2226;DHT22;1119;48.288;8.726;2023-02-05T11:41:04;3.70;99.90
2226;DHT22;1119;48.288;8.726;2023-02-05T11:43:34;3.70;99.90
2226;DHT22;1119;48.288;8.726;2023-02-05T11:46:07;3.60;99.90
2226;DHT22;1119;48.288;8.726;2023-02-05T11:48:40;3.60;99.90
2226;DHT22;1119;48.288;8.726;2023-02-05T11:51:12;3.50;99.90
2226;DHT22;1119;48.288;8.726;2023-02-05T11:53:51;3.50;99.90
2226;DHT22;1119;48.288;8.726;2023-02-05T11:56:22;3.50;99.90
2226;DHT22;1119;48.288;8.726;2023-02-05T11:58:58;3.40;99.90
2226;DHT22;1119;48.288;8.726;2023-02-05T12:01:27;3.40;99.90
2226;DHT22;1119;48.288;8.726;2023-02-05T12:03:59;3.40;99.90
2226;DHT22;1119;48.288;8.726;2023-02-05T12:06:34;3.50;99.90
2226;DHT22;1119;48.288;8.726;2023-02-05T12:09:03;3.50;99.90
2226;DHT22;1119;48.288;8.726;2023-02-05T12:11:45;3.50;99.90
2226;DHT22;1119;48.288;8.726;2023-02-05T12:14:44;3.50;99.90
2226;DHT22;1119;48.288;8.726;2023-02-05T12:17:23;3.50;99.90
2226;DHT22;1119;48.288;8.726;2023-02-05T12:20:05;3.50;99.90
2226;DHT22;1119;48.288;8.726;2023-02-05T12:22:55;3.50;99.90
2226;DHT22;1119;48.288;8.726;2023-02-05T12:25:32;3.40;99.90
2226;DHT22;1119;48.288;8.726;2023-02-05T12:28:17;3.40;99.90
2226;DHT22;1119;48.288;8.726;2023-02-05T12:30:57;3.40;99.90
2226;DHT22;1119;48.288;8.726;2023-02-05T12:33:48;3.30;99.90
2226;DHT22;1119;48.288;8.726;2023-02-05T12:36:40;3.30;99.90
2226;DHT22;1119;48.288;8.726;2023-02-05T12:39:25;3.30;99.90
2226;DHT22;1119;48.288;8.726;2023-02-05T12:42:10;3.20;99.90
2226;DHT22;1119;48.288;8.726;2023-02-05T12:44:55;3.20;99.90
2226;DHT22;1119;48.288;8.726;2023-02-05T12:47:40;3.20;99.90
2226;DHT22;1119;48.288;8.726;2023-02-05T12:50:36;3.20;99.90
2226;DHT22;1119;48.288;8.726;2023-02-05T12:53:32;3.20;99.90
2226;DHT22;1119;48.288;8.726;2023-02-05T12:56:29;3.10;99.90
2226;DHT22;1119;48.288;8.726;2023-02-05T12:59:05;3.00;99.90
2226;DHT22;1119;48.288;8.726;2023-02-05T13:01:42;3.00;99.90
2226;DHT22;1119;48.288;8.726;2023-02-05T13:04:19;3.00;99.90
2226;DHT22;1119;48.288;8.726;2023-02-05T13:06:52;3.00;99.90
2226;DHT22;1119;48.288;8.726;2023-02-05T13:09:24;3.00;99.90
2226;DHT22;1119;48.288;8.726;2023-02-05T13:12:01;3.10;99.90
2226;DHT22;1119;48.288;8.726;2023-02-05T13:14:35;3.10;99.90
2226;DHT22;1119;48.288;8.726;2023-02-05T13:17:10;3.20;99.90
2226;DHT22;1119;48.288;8.726;2023-02-05T13:19:42;3.20;99.90
2226;DHT22;1119;48.288;8.726;2023-02-05T13:22:17;3.30;99.90
2226;DHT22;1119;48.288;8.726;2023-02-05T13:25:12;3.30;99.90
2226;DHT22;1119;48.288;8.726;2023-02-05T13:28:27;3.30;99.90
2226;DHT22;1119;48.288;8.726;2023-02-05T13:31:23;3.30;99.90
2226;DHT22;1119;48.288;8.726;2023-02-05T13:33:53;3.30;99.90
2226;DHT22;1119;48.288;8.726;2023-02-05T13:36:37;3.30;99.90
2226;DHT22;1119;48.288;8.726;2023-02-05T13:39:27;3.30;99.90
2226;DHT22;1119;48.288;8.726;2023-02-05T13:45:52;3.40;99.90
2226;DHT22;1119;48.288;8.726;2023-02-05T13:48:44;3.50;99.90
2226;DHT22;1119;48.288;8.726;2023-02-05T13:51:32;3.60;99.90
2226;DHT22;1119;48.288;8.726;2023-02-05T13:58:04;3.60;99.90
2226;DHT22;1119;48.288;8.726;2023-02-05T14:00:37;3.50;99.90
2226;DHT22;1119;48.288;8.726;2023-02-05T14:03:08;3.40;99.90
2226;DHT22;1119;48.288;8.726;2023-02-05T14:05:51;3.40;99.90
2226;DHT22;1119;48.288;8.726;2023-02-05T14:08:21;3.50;99.90
2226;DHT22;1119;48.288;8.726;2023-02-05T14:10:57;3.50;99.90
2226;DHT22;1119;48.288;8.726;2023-02-05T14:13:27;3.50;99.90
2226;DHT22;1119;48.288;8.726;2023-02-05T14:16:31;3.60;99.90
2226;DHT22;1119;48.288;8.726;2023-02-05T14:19:18;3.60;99.90
2226;DHT22;1119;48.288;8.726;2023-02-05T14:24:45;3.80;99.90
2226;DHT22;1119;48.288;8.726;2023-02-05T14:27:47;3.80;99.90
2226;DHT22;1119;48.288;8.726;2023-02-05T14:30:32;3.80;99.90
2226;DHT22;1119;48.288;8.726;2023-02-05T14:33:26;3.80;99.90
2226;DHT22;1119;48.288;8.726;2023-02-05T14:36:31;3.70;99.90
2226;DHT22;1119;48.288;8.726;2023-02-05T14:39:04;3.70;99.90
2226;DHT22;1119;48.288;8.726;2023-02-05T14:41:47;3.60;99.90
2226;DHT22;1119;48.288;8.726;2023-02-05T14:44:19;3.50;99.90
2226;DHT22;1119;48.288;8.726;2023-02-05T14:46:56;3.40;99.90
2226;DHT22;1119;48.288;8.726;2023-02-05T14:49:34;3.40;99.90
2226;DHT22;1119;48.288;8.726;2023-02-05T14:52:24;3.40;99.90
2226;DHT22;1119;48.288;8.726;2023-02-05T14:54:55;3.40;99.90
2226;DHT22;1119;48.288;8.726;2023-02-05T14:57:28;3.40;99.90
2226;DHT22;1119;48.288;8.726;2023-02-05T15:00:17;3.30;99.90
2226;DHT22;1119;48.288;8.726;2023-02-05T15:06:03;3.30;99.90
2226;DHT22;1119;48.288;8.726;2023-02-05T15:11:53;3.40;99.90
2226;DHT22;1119;48.288;8.726;2023-02-05T15:14:39;3.50;99.90
2226;DHT22;1119;48.288;8.726;2023-02-05T15:20:27;3.50;99.90
2226;DHT22;1119;48.288;8.726;2023-02-05T15:23:09;3.70;99.90
2226;DHT22;1119;48.288;8.726;2023-02-05T15:25:50;3.60;99.90
2226;DHT22;1119;48.288;8.726;2023-02-05T15:28:26;3.70;99.90
2226;DHT22;1119;48.288;8.726;2023-02-05T15:31:07;3.70;99.90
2226;DHT22;1119;48.288;8.726;2023-02-05T15:33:58;3.70;99.90
2226;DHT22;1119;48.288;8.726;2023-02-05T15:36:34;3.70;99.90
2226;DHT22;1119;48.288;8.726;2023-02-05T15:39:16;3.70;99.90
2226;DHT22;1119;48.288;8.726;2023-02-05T15:41:46;3.80;99.90
2226;DHT22;1119;48.288;8.726;2023-02-05T15:44:22;3.80;99.90
2226;DHT22;1119;48.288;8.726;2023-02-05T15:46:56;3.90;99.90
2226;DHT22;1119;48.288;8.726;2023-02-05T15:49:30;3.90;99.90
2226;DHT22;1119;48.288;8.726;2023-02-05T15:52:00;4.00;99.90
2226;DHT22;1119;48.288;8.726;2023-02-05T15:54:31;3.90;99.90
2226;DHT22;1119;48.288;8.726;2023-02-05T15:57:02;4.00;99.90
2226;DHT22;1119;48.288;8.726;2023-02-05T15:59:31;3.90;99.90
2226;DHT22;1119;48.288;8.726;2023-02-05T16:02:03;3.90;99.90
2226;DHT22;1119;48.288;8.726;2023-02-05T16:04:35;4.00;99.90
2226;DHT22;1119;48.288;8.726;2023-02-05T16:07:17;3.90;99.90
2226;DHT22;1119;48.288;8.726;2023-02-05T16:09:50;3.80;99.90
2226;DHT22;1119;48.288;8.726;2023-02-05T16:12:22;3.80;99.90
2226;DHT22;1119;48.288;8.726;2023-02-05T16:14:57;3.70;99.90
2226;DHT22;1119;48.288;8.726;2023-02-05T16:17:31;3.70;99.90
2226;DHT22;1119;48.288;8.726;2023-02-05T16:20:11;3.70;99.90
2226;DHT22;1119;48.288;8.726;2023-02-05T16:22:51;3.80;99.90
2226;DHT22;1119;48.288;8.726;2023-02-05T16:25:29;3.80;99.90
2226;DHT22;1119;48.288;8.726;2023-02-05T16:28:01;3.80;99.90
2226;DHT22;1119;48.288;8.726;2023-02-05T16:30:33;3.80;99.90
2226;DHT22;1119;48.288;8.726;2023-02-05T16:33:05;3.90;99.90
2226;DHT22;1119;48.288;8.726;2023-02-05T16:35:36;3.90;99.90
2226;DHT22;1119;48.288;8.726;2023-02-05T16:38:05;3.90;99.90
2226;DHT22;1119;48.288;8.726;2023-02-05T16:40:43;3.90;99.90
2226;DHT22;1119;48.288;8.726;2023-02-05T16:43:19;3.90;99.90
2226;DHT22;1119;48.288;8.726;2023-02-05T16:46:20;3.90;99.90
2226;DHT22;1119;48.288;8.726;2023-02-05T16:48:50;3.90;99.90
2226;DHT22;1119;48.288;8.726;2023-02-05T16:51:34;3.90;99.90
2226;DHT22;1119;48.288;8.726;2023-02-05T16:54:29;3.80;99.90
2226;DHT22;1119;48.288;8.726;2023-02-05T16:57:11;3.70;99.90
2226;DHT22;1119;48.288;8.726;2023-02-05T16:59:48;3.70;99.90
2226;DHT22;1119;48.288;8.726;2023-02-05T17:02:24;3.70;99.90
2226;DHT22;1119;48.288;8.726;2023-02-05T17:04:55;3.70;99.90
2226;DHT22;1119;48.288;8.726;2023-02-05T17:07:23;3.60;99.90
2226;DHT22;1119;48.288;8.726;2023-02-05T17:09:51;3.60;99.90
2226;DHT22;1119;48.288;8.726;2023-02-05T17:12:45;3.60;99.90
2226;DHT22;1119;48.288;8.726;2023-02-05T17:15:32;3.60;99.90
2226;DHT22;1119;48.288;8.726;2023-02-05T17:18:18;3.60;99.90
2226;DHT22;1119;48.288;8.726;2023-02-05T17:20:47;3.60;99.90
2226;DHT22;1119;48.288;8.726;2023-02-05T17:23:15;3.70;99.90
2226;DHT22;1119;48.288;8.726;2023-02-05T17:25:49;3.80;99.90
2226;DHT22;1119;48.288;8.726;2023-02-05T17:28:23;3.80;99.90